sensor_id;sensor_type;location;lat;lon;timestamp;temperature;humidity
63802;DHT22;49949;43.060;25.624;2023-10-09T00:01:45;14.10;88.30
63802;DHT22;49949;43.060;25.624;2023-10-09T00:04:12;14.00;87.20
63802;DHT22;49949;43.060;25.624;2023-10-09T00:06:40;14.00;87.30
63802;DHT22;49949;43.060;25.624;2023-10-09T00:09:09;14.00;87.70
63802;DHT22;49949;43.060;25.624;2023-10-09T00:11:50;14.00;85.80
63802;DHT22;49949;43.060;25.624;2023-10-09T00:14:26;13.90;85.50
63802;DHT22;49949;43.060;25.624;2023-10-09T00:16:52;13.80;84.20
63802;DHT22;49949;43.060;25.624;2023-10-09T00:19:38;13.80;84.60
63802;DHT22;49949;43.060;25.624;2023-10-09T00:22:04;13.90;84.80
63802;DHT22;49949;43.060;25.624;2023-10-09T00:24:44;13.90;83.00
63802;DHT22;49949;43.060;25.624;2023-10-09T00:27:11;13.90;81.60
63802;DHT22;49949;43.060;25.624;2023-10-09T00:29:38;13.80;81.50
63802;DHT22;49949;43.060;25.624;2023-10-09T00:32:15;13.90;80.70
63802;DHT22;49949;43.060;25.624;2023-10-09T00:34:58;13.80;79.90
63802;DHT22;49949;43.060;25.624;2023-10-09T00:37:24;13.90;80.40
63802;DHT22;49949;43.060;25.624;2023-10-09T00:39:59;13.80;78.70
63802;DHT22;49949;43.060;25.624;2023-10-09T00:42:25;13.80;77.90
63802;DHT22;49949;43.060;25.624;2023-10-09T00:45:00;13.80;77.90
63802;DHT22;49949;43.060;25.624;2023-10-09T00:47:34;13.80;77.40
63802;DHT22;49949;43.060;25.624;2023-10-09T00:50:06;13.80;77.30
63802;DHT22;49949;43.060;25.624;2023-10-09T00:52:44;13.80;77.80
63802;DHT22;49949;43.060;25.624;2023-10-09T00:55:17;13.80;77.40
63802;DHT22;49949;43.060;25.624;2023-10-09T00:57:48;13.70;76.80
63802;DHT22;49949;43.060;25.624;2023-10-09T01:00:17;13.70;77.20
63802;DHT22;49949;43.060;25.624;2023-10-09T01:03:07;13.70;76.90
63802;DHT22;49949;43.060;25.624;2023-10-09T01:05:52;13.60;76.50
63802;DHT22;49949;43.060;25.624;2023-10-09T01:08:30;13.60;76.90
63802;DHT22;49949;43.060;25.624;2023-10-09T01:11:12;13.70;76.50
63802;DHT22;49949;43.060;25.624;2023-10-09T01:13:46;13.70;76.40
63802;DHT22;49949;43.060;25.624;2023-10-09T01:16:12;13.60;76.00
63802;DHT22;49949;43.060;25.624;2023-10-09T01:18:46;13.60;75.90
63802;DHT22;49949;43.060;25.624;2023-10-09T01:21:15;13.60;75.90
63802;DHT22;49949;43.060;25.624;2023-10-09T01:23:45;13.60;76.10
63802;DHT22;49949;43.060;25.624;2023-10-09T01:26:34;13.60;76.20
63802;DHT22;49949;43.060;25.624;2023-10-09T01:29:16;13.60;76.20
63802;DHT22;49949;43.060;25.624;2023-10-09T01:31:47;13.60;76.70
63802;DHT22;49949;43.060;25.624;2023-10-09T01:34:30;13.60;76.50
63802;DHT22;49949;43.060;25.624;2023-10-09T01:37:08;13.60;76.50
63802;DHT22;49949;43.060;25.624;2023-10-09T01:39:54;13.60;76.70
63802;DHT22;49949;43.060;25.624;2023-10-09T01:42:23;13.60;76.70
63802;DHT22;49949;43.060;25.624;2023-10-09T01:45:11;13.60;76.90
63802;DHT22;49949;43.060;25.624;2023-10-09T01:47:37;13.70;77.20
63802;DHT22;49949;43.060;25.624;2023-10-09T01:50:05;13.60;77.20
63802;DHT22;49949;43.060;25.624;2023-10-09T01:52:30;13.60;77.50
63802;DHT22;49949;43.060;25.624;2023-10-09T01:54:56;13.50;77.70
63802;DHT22;49949;43.060;25.624;2023-10-09T01:57:30;13.50;78.10
63802;DHT22;49949;43.060;25.624;2023-10-09T01:59:59;13.40;78.10
63802;DHT22;49949;43.060;25.624;2023-10-09T02:02:25;13.40;78.00
63802;DHT22;49949;43.060;25.624;2023-10-09T02:04:57;13.40;78.10
63802;DHT22;49949;43.060;25.624;2023-10-09T02:07:34;13.40;78.10
63802;DHT22;49949;43.060;25.624;2023-10-09T02:10:06;13.40;78.40
63802;DHT22;49949;43.060;25.624;2023-10-09T02:12:37;13.30;78.60
63802;DHT22;49949;43.060;25.624;2023-10-09T02:15:03;13.30;78.80
63802;DHT22;49949;43.060;25.624;2023-10-09T02:17:41;13.40;78.50
63802;DHT22;49949;43.060;25.624;2023-10-09T02:20:18;13.30;78.80
63802;DHT22;49949;43.060;25.624;2023-10-09T02:22:54;13.30;78.50
63802;DHT22;49949;43.060;25.624;2023-10-09T02:25:20;13.30;78.30
63802;DHT22;49949;43.060;25.624;2023-10-09T02:27:47;13.40;78.00
63802;DHT22;49949;43.060;25.624;2023-10-09T02:30:24;13.40;77.70
63802;DHT22;49949;43.060;25.624;2023-10-09T02:32:54;13.30;77.20
63802;DHT22;49949;43.060;25.624;2023-10-09T02:35:32;13.30;77.40
63802;DHT22;49949;43.060;25.624;2023-10-09T02:38:05;13.30;77.20
63802;DHT22;49949;43.060;25.624;2023-10-09T02:40:35;13.30;77.40
63802;DHT22;49949;43.060;25.624;2023-10-09T02:43:34;13.20;77.40
63802;DHT22;49949;43.060;25.624;2023-10-09T02:46:14;13.30;77.60
63802;DHT22;49949;43.060;25.624;2023-10-09T02:49:02;13.30;76.90
63802;DHT22;49949;43.060;25.624;2023-10-09T02:51:35;13.20;77.00
63802;DHT22;49949;43.060;25.624;2023-10-09T02:54:06;13.30;76.80
63802;DHT22;49949;43.060;25.624;2023-10-09T02:56:49;13.20;76.60
63802;DHT22;49949;43.060;25.624;2023-10-09T02:59:23;13.20;76.80
63802;DHT22;49949;43.060;25.624;2023-10-09T03:01:49;13.20;76.40
63802;DHT22;49949;43.060;25.624;2023-10-09T03:04:18;13.20;76.00
63802;DHT22;49949;43.060;25.624;2023-10-09T03:06:45;13.20;76.30
63802;DHT22;49949;43.060;25.624;2023-10-09T03:09:20;13.20;76.40
63802;DHT22;49949;43.060;25.624;2023-10-09T03:11:55;13.30;76.70
63802;DHT22;49949;43.060;25.624;2023-10-09T03:14:21;13.20;76.70
63802;DHT22;49949;43.060;25.624;2023-10-09T03:16:50;13.20;76.10
63802;DHT22;49949;43.060;25.624;2023-10-09T03:19:16;13.20;76.20
63802;DHT22;49949;43.060;25.624;2023-10-09T03:21:42;13.10;76.20
63802;DHT22;49949;43.060;25.624;2023-10-09T03:24:08;13.20;75.90
63802;DHT22;49949;43.060;25.624;2023-10-09T03:26:34;13.10;76.20
63802;DHT22;49949;43.060;25.624;2023-10-09T03:29:00;13.10;76.50
63802;DHT22;49949;43.060;25.624;2023-10-09T03:31:28;13.10;76.20
63802;DHT22;49949;43.060;25.624;2023-10-09T03:33:57;13.00;76.70
63802;DHT22;49949;43.060;25.624;2023-10-09T03:36:22;13.00;76.90
63802;DHT22;49949;43.060;25.624;2023-10-09T03:38:52;13.10;77.10
63802;DHT22;49949;43.060;25.624;2023-10-09T03:41:23;13.10;76.90
63802;DHT22;49949;43.060;25.624;2023-10-09T03:43:52;13.00;77.40
63802;DHT22;49949;43.060;25.624;2023-10-09T03:46:20;13.00;77.40
63802;DHT22;49949;43.060;25.624;2023-10-09T03:48:50;13.00;77.60
63802;DHT22;49949;43.060;25.624;2023-10-09T03:51:21;13.00;77.40
63802;DHT22;49949;43.060;25.624;2023-10-09T03:53:51;13.00;77.90
63802;DHT22;49949;43.060;25.624;2023-10-09T03:56:20;13.00;78.20
63802;DHT22;49949;43.060;25.624;2023-10-09T03:58:50;13.00;77.70
63802;DHT22;49949;43.060;25.624;2023-10-09T04:01:17;13.00;77.90
63802;DHT22;49949;43.060;25.624;2023-10-09T04:04:00;13.00;77.90
63802;DHT22;49949;43.060;25.624;2023-10-09T04:06:27;13.00;77.90
63802;DHT22;49949;43.060;25.624;2023-10-09T04:08:56;13.00;77.90
63802;DHT22;49949;43.060;25.624;2023-10-09T04:11:26;13.00;77.90
63802;DHT22;49949;43.060;25.624;2023-10-09T04:13:52;13.00;78.10
63802;DHT22;49949;43.060;25.624;2023-10-09T04:16:19;13.00;78.10
63802;DHT22;49949;43.060;25.624;2023-10-09T04:18:58;13.00;78.00
63802;DHT22;49949;43.060;25.624;2023-10-09T04:21:25;13.00;77.80
63802;DHT22;49949;43.060;25.624;2023-10-09T04:24:09;13.00;78.00
63802;DHT22;49949;43.060;25.624;2023-10-09T04:26:48;12.90;77.90
63802;DHT22;49949;43.060;25.624;2023-10-09T04:29:19;12.90;78.10
63802;DHT22;49949;43.060;25.624;2023-10-09T04:31:55;12.90;77.90
63802;DHT22;49949;43.060;25.624;2023-10-09T04:34:25;12.90;77.40
63802;DHT22;49949;43.060;25.624;2023-10-09T04:36:57;12.90;77.90
63802;DHT22;49949;43.060;25.624;2023-10-09T04:39:27;12.90;77.70
63802;DHT22;49949;43.060;25.624;2023-10-09T04:41:58;12.90;77.50
63802;DHT22;49949;43.060;25.624;2023-10-09T04:44:43;12.90;77.60
63802;DHT22;49949;43.060;25.624;2023-10-09T04:47:32;12.90;77.60
63802;DHT22;49949;43.060;25.624;2023-10-09T04:50:11;12.90;77.50
63802;DHT22;49949;43.060;25.624;2023-10-09T04:52:40;12.90;77.60
63802;DHT22;49949;43.060;25.624;2023-10-09T04:55:07;12.90;77.90
63802;DHT22;49949;43.060;25.624;2023-10-09T04:57:37;12.90;78.00
63802;DHT22;49949;43.060;25.624;2023-10-09T05:00:15;13.00;78.00
63802;DHT22;49949;43.060;25.624;2023-10-09T05:02:53;13.00;77.20
63802;DHT22;49949;43.060;25.624;2023-10-09T05:05:33;12.90;77.10
63802;DHT22;49949;43.060;25.624;2023-10-09T05:08:12;12.90;76.90
63802;DHT22;49949;43.060;25.624;2023-10-09T05:11:00;12.80;77.40
63802;DHT22;49949;43.060;25.624;2023-10-09T05:16:07;12.80;77.20
63802;DHT22;49949;43.060;25.624;2023-10-09T05:18:52;12.80;77.40
63802;DHT22;49949;43.060;25.624;2023-10-09T05:21:36;12.80;77.10
63802;DHT22;49949;43.060;25.624;2023-10-09T05:24:05;12.80;77.40
63802;DHT22;49949;43.060;25.624;2023-10-09T05:26:37;12.80;77.70
63802;DHT22;49949;43.060;25.624;2023-10-09T05:29:20;12.90;77.60
63802;DHT22;49949;43.060;25.624;2023-10-09T05:32:02;13.00;77.20
63802;DHT22;49949;43.060;25.624;2023-10-09T05:34:31;13.00;77.60
63802;DHT22;49949;43.060;25.624;2023-10-09T05:37:03;13.00;77.70
63802;DHT22;49949;43.060;25.624;2023-10-09T05:39:49;13.10;77.50
63802;DHT22;49949;43.060;25.624;2023-10-09T05:42:31;13.10;76.90
63802;DHT22;49949;43.060;25.624;2023-10-09T05:45:06;13.10;77.30
63802;DHT22;49949;43.060;25.624;2023-10-09T05:47:52;13.20;77.20
63802;DHT22;49949;43.060;25.624;2023-10-09T05:50:37;13.10;77.10
63802;DHT22;49949;43.060;25.624;2023-10-09T05:53:25;13.00;77.50
63802;DHT22;49949;43.060;25.624;2023-10-09T05:55:54;13.10;77.40
63802;DHT22;49949;43.060;25.624;2023-10-09T05:58:58;13.10;77.20
63802;DHT22;49949;43.060;25.624;2023-10-09T06:01:42;13.00;77.20
63802;DHT22;49949;43.060;25.624;2023-10-09T06:04:22;13.10;77.60
63802;DHT22;49949;43.060;25.624;2023-10-09T06:07:00;13.10;77.70
63802;DHT22;49949;43.060;25.624;2023-10-09T06:09:36;13.20;77.40
63802;DHT22;49949;43.060;25.624;2023-10-09T06:12:25;13.10;77.60
63802;DHT22;49949;43.060;25.624;2023-10-09T06:14:57;13.20;78.10
63802;DHT22;49949;43.060;25.624;2023-10-09T06:17:46;13.20;78.40
63802;DHT22;49949;43.060;25.624;2023-10-09T06:20:17;13.30;78.00
63802;DHT22;49949;43.060;25.624;2023-10-09T06:23:12;13.40;77.70
63802;DHT22;49949;43.060;25.624;2023-10-09T06:26:03;13.30;77.90
63802;DHT22;49949;43.060;25.624;2023-10-09T06:28:49;13.20;78.10
63802;DHT22;49949;43.060;25.624;2023-10-09T06:31:34;13.20;78.10
63802;DHT22;49949;43.060;25.624;2023-10-09T06:34:20;13.20;78.10
63802;DHT22;49949;43.060;25.624;2023-10-09T06:36:50;13.30;78.60
63802;DHT22;49949;43.060;25.624;2023-10-09T06:39:19;13.30;78.60
63802;DHT22;49949;43.060;25.624;2023-10-09T06:42:03;13.40;78.00
63802;DHT22;49949;43.060;25.624;2023-10-09T06:44:48;13.30;78.30
63802;DHT22;49949;43.060;25.624;2023-10-09T06:47:17;13.30;78.10
63802;DHT22;49949;43.060;25.624;2023-10-09T06:49:44;13.30;78.30
63802;DHT22;49949;43.060;25.624;2023-10-09T06:52:30;13.30;78.30
63802;DHT22;49949;43.060;25.624;2023-10-09T06:55:15;13.30;78.10
63802;DHT22;49949;43.060;25.624;2023-10-09T06:57:45;13.40;78.10
63802;DHT22;49949;43.060;25.624;2023-10-09T07:00:15;13.50;77.60
63802;DHT22;49949;43.060;25.624;2023-10-09T07:03:01;13.60;77.60
63802;DHT22;49949;43.060;25.624;2023-10-09T07:05:37;13.50;77.20
63802;DHT22;49949;43.060;25.624;2023-10-09T07:08:23;13.50;77.40
63802;DHT22;49949;43.060;25.624;2023-10-09T07:11:00;13.50;77.00
63802;DHT22;49949;43.060;25.624;2023-10-09T07:13:45;13.50;76.90
63802;DHT22;49949;43.060;25.624;2023-10-09T07:16:20;13.40;76.80
63802;DHT22;49949;43.060;25.624;2023-10-09T07:18:49;13.40;76.60
63802;DHT22;49949;43.060;25.624;2023-10-09T07:21:15;13.60;76.50
63802;DHT22;49949;43.060;25.624;2023-10-09T07:23:43;13.60;76.50
63802;DHT22;49949;43.060;25.624;2023-10-09T07:26:13;13.70;76.70
63802;DHT22;49949;43.060;25.624;2023-10-09T07:28:48;13.80;76.40
63802;DHT22;49949;43.060;25.624;2023-10-09T07:31:19;13.90;75.60
63802;DHT22;49949;43.060;25.624;2023-10-09T07:33:53;13.90;75.20
63802;DHT22;49949;43.060;25.624;2023-10-09T07:36:25;14.10;74.80
63802;DHT22;49949;43.060;25.624;2023-10-09T07:39:04;14.20;74.70
63802;DHT22;49949;43.060;25.624;2023-10-09T07:41:40;14.40;73.90
63802;DHT22;49949;43.060;25.624;2023-10-09T07:44:11;14.70;73.20
63802;DHT22;49949;43.060;25.624;2023-10-09T07:47:00;14.80;72.80
63802;DHT22;49949;43.060;25.624;2023-10-09T07:50:04;14.90;72.60
63802;DHT22;49949;43.060;25.624;2023-10-09T07:52:36;15.10;71.90
63802;DHT22;49949;43.060;25.624;2023-10-09T07:55:09;15.10;71.60
63802;DHT22;49949;43.060;25.624;2023-10-09T07:57:52;15.10;72.30
63802;DHT22;49949;43.060;25.624;2023-10-09T08:00:17;15.30;71.90
63802;DHT22;49949;43.060;25.624;2023-10-09T08:03:02;15.40;71.60
63802;DHT22;49949;43.060;25.624;2023-10-09T08:05:28;15.50;71.30
63802;DHT22;49949;43.060;25.624;2023-10-09T08:08:00;15.60;71.20
63802;DHT22;49949;43.060;25.624;2023-10-09T08:10:52;15.70;70.30
63802;DHT22;49949;43.060;25.624;2023-10-09T08:13:36;15.70;71.30
63802;DHT22;49949;43.060;25.624;2023-10-09T08:16:20;15.60;71.40
63802;DHT22;49949;43.060;25.624;2023-10-09T08:18:47;15.70;71.60
63802;DHT22;49949;43.060;25.624;2023-10-09T08:21:18;16.00;71.30
63802;DHT22;49949;43.060;25.624;2023-10-09T08:23:43;16.30;70.90
63802;DHT22;49949;43.060;25.624;2023-10-09T08:26:16;16.60;69.50
63802;DHT22;49949;43.060;25.624;2023-10-09T08:28:55;16.70;68.70
63802;DHT22;49949;43.060;25.624;2023-10-09T08:31:41;16.70;69.00
63802;DHT22;49949;43.060;25.624;2023-10-09T08:34:22;16.70;69.30
63802;DHT22;49949;43.060;25.624;2023-10-09T08:36:51;16.80;69.30
63802;DHT22;49949;43.060;25.624;2023-10-09T08:39:22;17.00;68.70
63802;DHT22;49949;43.060;25.624;2023-10-09T08:41:54;17.10;68.00
63802;DHT22;49949;43.060;25.624;2023-10-09T08:44:24;17.30;68.80
63802;DHT22;49949;43.060;25.624;2023-10-09T08:46:54;17.40;67.90
63802;DHT22;49949;43.060;25.624;2023-10-09T08:49:20;17.60;67.60
63802;DHT22;49949;43.060;25.624;2023-10-09T08:51:48;17.80;68.00
63802;DHT22;49949;43.060;25.624;2023-10-09T08:54:15;18.00;67.10
63802;DHT22;49949;43.060;25.624;2023-10-09T08:56:41;18.20;66.40
63802;DHT22;49949;43.060;25.624;2023-10-09T08:59:19;18.40;66.20
63802;DHT22;49949;43.060;25.624;2023-10-09T09:01:46;18.30;65.60
63802;DHT22;49949;43.060;25.624;2023-10-09T09:04:40;18.30;67.20
63802;DHT22;49949;43.060;25.624;2023-10-09T09:07:26;18.50;65.70
63802;DHT22;49949;43.060;25.624;2023-10-09T09:09:58;18.60;65.60
63802;DHT22;49949;43.060;25.624;2023-10-09T09:12:29;18.60;64.90
63802;DHT22;49949;43.060;25.624;2023-10-09T09:15:03;18.50;65.60
63802;DHT22;49949;43.060;25.624;2023-10-09T09:17:32;18.30;65.80
63802;DHT22;49949;43.060;25.624;2023-10-09T09:19:58;18.40;65.80
63802;DHT22;49949;43.060;25.624;2023-10-09T09:22:24;18.50;66.50
63802;DHT22;49949;43.060;25.624;2023-10-09T09:24:58;18.40;66.70
63802;DHT22;49949;43.060;25.624;2023-10-09T09:27:44;18.50;66.80
63802;DHT22;49949;43.060;25.624;2023-10-09T09:30:28;18.60;67.30
63802;DHT22;49949;43.060;25.624;2023-10-09T09:36:03;19.20;65.80
63802;DHT22;49949;43.060;25.624;2023-10-09T09:38:32;19.60;65.60
63802;DHT22;49949;43.060;25.624;2023-10-09T09:41:14;19.50;63.10
63802;DHT22;49949;43.060;25.624;2023-10-09T09:43:57;19.30;65.30
63802;DHT22;49949;43.060;25.624;2023-10-09T09:46:35;19.40;65.10
63802;DHT22;49949;43.060;25.624;2023-10-09T09:49:04;19.60;65.30
63802;DHT22;49949;43.060;25.624;2023-10-09T09:51:34;19.60;64.20
63802;DHT22;49949;43.060;25.624;2023-10-09T09:54:01;19.70;64.10
63802;DHT22;49949;43.060;25.624;2023-10-09T09:56:29;19.80;63.70
63802;DHT22;49949;43.060;25.624;2023-10-09T09:58:57;19.70;63.30
63802;DHT22;49949;43.060;25.624;2023-10-09T10:01:30;19.70;64.70
63802;DHT22;49949;43.060;25.624;2023-10-09T10:04:11;19.70;64.10
63802;DHT22;49949;43.060;25.624;2023-10-09T10:06:40;19.80;63.50
63802;DHT22;49949;43.060;25.624;2023-10-09T10:09:07;20.00;63.00
63802;DHT22;49949;43.060;25.624;2023-10-09T10:11:46;19.90;63.50
63802;DHT22;49949;43.060;25.624;2023-10-09T10:14:13;19.80;63.90
63802;DHT22;49949;43.060;25.624;2023-10-09T10:17:03;19.90;63.40
63802;DHT22;49949;43.060;25.624;2023-10-09T10:20:02;20.00;63.10
63802;DHT22;49949;43.060;25.624;2023-10-09T10:22:44;20.10;62.40
63802;DHT22;49949;43.060;25.624;2023-10-09T10:25:31;20.20;62.50
63802;DHT22;49949;43.060;25.624;2023-10-09T10:28:23;20.30;62.50
63802;DHT22;49949;43.060;25.624;2023-10-09T10:31:08;20.10;62.90
63802;DHT22;49949;43.060;25.624;2023-10-09T10:36:21;20.20;62.60
63802;DHT22;49949;43.060;25.624;2023-10-09T10:39:08;20.30;63.50
63802;DHT22;49949;43.060;25.624;2023-10-09T10:41:37;20.30;62.80
63802;DHT22;49949;43.060;25.624;2023-10-09T10:44:33;20.30;62.80
63802;DHT22;49949;43.060;25.624;2023-10-09T10:47:09;20.40;62.30
63802;DHT22;49949;43.060;25.624;2023-10-09T10:49:56;20.30;61.80
63802;DHT22;49949;43.060;25.624;2023-10-09T10:52:27;20.00;62.40
63802;DHT22;49949;43.060;25.624;2023-10-09T10:55:09;20.00;63.30
63802;DHT22;49949;43.060;25.624;2023-10-09T10:58:17;20.10;63.00
63802;DHT22;49949;43.060;25.624;2023-10-09T11:01:00;20.10;63.00
63802;DHT22;49949;43.060;25.624;2023-10-09T11:03:37;20.30;63.20
63802;DHT22;49949;43.060;25.624;2023-10-09T11:06:28;20.10;62.30
63802;DHT22;49949;43.060;25.624;2023-10-09T11:09:09;19.90;62.60
63802;DHT22;49949;43.060;25.624;2023-10-09T11:11:50;19.80;63.70
63802;DHT22;49949;43.060;25.624;2023-10-09T11:14:45;20.10;63.30
63802;DHT22;49949;43.060;25.624;2023-10-09T11:17:32;20.20;62.40
63802;DHT22;49949;43.060;25.624;2023-10-09T11:19:58;20.30;62.70
63802;DHT22;49949;43.060;25.624;2023-10-09T11:22:30;20.50;62.30
63802;DHT22;49949;43.060;25.624;2023-10-09T11:25:02;20.50;61.60
63802;DHT22;49949;43.060;25.624;2023-10-09T11:27:37;20.50;61.30
63802;DHT22;49949;43.060;25.624;2023-10-09T11:30:06;20.50;62.30
63802;DHT22;49949;43.060;25.624;2023-10-09T11:32:36;20.70;61.70
63802;DHT22;49949;43.060;25.624;2023-10-09T11:35:13;20.80;61.60
63802;DHT22;49949;43.060;25.624;2023-10-09T11:37:59;20.80;61.10
63802;DHT22;49949;43.060;25.624;2023-10-09T11:40:33;20.50;60.90
63802;DHT22;49949;43.060;25.624;2023-10-09T11:43:17;20.40;62.00
63802;DHT22;49949;43.060;25.624;2023-10-09T11:45:43;20.50;62.00
63802;DHT22;49949;43.060;25.624;2023-10-09T11:48:20;20.60;60.40
63802;DHT22;49949;43.060;25.624;2023-10-09T11:50:56;20.60;60.10
63802;DHT22;49949;43.060;25.624;2023-10-09T11:53:43;20.60;60.60
63802;DHT22;49949;43.060;25.624;2023-10-09T11:56:11;20.50;61.10
63802;DHT22;49949;43.060;25.624;2023-10-09T11:58:42;20.40;60.70
63802;DHT22;49949;43.060;25.624;2023-10-09T12:01:12;20.30;60.60
63802;DHT22;49949;43.060;25.624;2023-10-09T12:03:50;20.20;60.60
63802;DHT22;49949;43.060;25.624;2023-10-09T12:06:17;20.20;61.80
63802;DHT22;49949;43.060;25.624;2023-10-09T12:08:45;20.40;60.40
63802;DHT22;49949;43.060;25.624;2023-10-09T12:11:17;20.50;60.90
63802;DHT22;49949;43.060;25.624;2023-10-09T12:13:54;20.60;61.20
63802;DHT22;49949;43.060;25.624;2023-10-09T12:16:23;20.80;61.10
63802;DHT22;49949;43.060;25.624;2023-10-09T12:18:54;20.80;58.90
63802;DHT22;49949;43.060;25.624;2023-10-09T12:21:20;20.80;60.00
63802;DHT22;49949;43.060;25.624;2023-10-09T12:23:46;20.80;59.70
63802;DHT22;49949;43.060;25.624;2023-10-09T12:26:12;20.60;60.30
63802;DHT22;49949;43.060;25.624;2023-10-09T12:28:44;20.60;61.10
63802;DHT22;49949;43.060;25.624;2023-10-09T12:31:15;20.70;61.50
63802;DHT22;49949;43.060;25.624;2023-10-09T12:33:45;20.90;61.10
63802;DHT22;49949;43.060;25.624;2023-10-09T12:36:14;21.00;60.60
63802;DHT22;49949;43.060;25.624;2023-10-09T12:38:46;21.10;60.60
63802;DHT22;49949;43.060;25.624;2023-10-09T12:41:16;21.20;58.60
63802;DHT22;49949;43.060;25.624;2023-10-09T12:43:48;21.30;58.00
63802;DHT22;49949;43.060;25.624;2023-10-09T12:46:13;21.40;57.50
63802;DHT22;49949;43.060;25.624;2023-10-09T12:48:45;21.50;58.80
63802;DHT22;49949;43.060;25.624;2023-10-09T12:51:14;21.70;58.70
63802;DHT22;49949;43.060;25.624;2023-10-09T12:53:46;21.80;57.80
63802;DHT22;49949;43.060;25.624;2023-10-09T12:56:14;21.90;57.40
63802;DHT22;49949;43.060;25.624;2023-10-09T12:58:43;22.00;57.40
63802;DHT22;49949;43.060;25.624;2023-10-09T13:01:18;22.00;57.20
63802;DHT22;49949;43.060;25.624;2023-10-09T13:03:46;22.10;57.60
63802;DHT22;49949;43.060;25.624;2023-10-09T13:06:15;22.20;58.00
63802;DHT22;49949;43.060;25.624;2023-10-09T13:08:49;22.20;57.10
63802;DHT22;49949;43.060;25.624;2023-10-09T13:11:17;22.20;56.20
63802;DHT22;49949;43.060;25.624;2023-10-09T13:13:45;22.00;55.60
63802;DHT22;49949;43.060;25.624;2023-10-09T13:16:17;21.80;56.80
63802;DHT22;49949;43.060;25.624;2023-10-09T13:18:54;21.90;57.10
63802;DHT22;49949;43.060;25.624;2023-10-09T13:21:25;21.90;57.50
63802;DHT22;49949;43.060;25.624;2023-10-09T13:24:00;21.90;57.50
63802;DHT22;49949;43.060;25.624;2023-10-09T13:26:28;21.90;56.90
63802;DHT22;49949;43.060;25.624;2023-10-09T13:28:57;21.90;56.60
63802;DHT22;49949;43.060;25.624;2023-10-09T13:31:23;21.90;58.00
63802;DHT22;49949;43.060;25.624;2023-10-09T13:33:56;21.80;55.50
63802;DHT22;49949;43.060;25.624;2023-10-09T13:36:25;21.70;54.50
63802;DHT22;49949;43.060;25.624;2023-10-09T13:38:54;21.50;54.50
63802;DHT22;49949;43.060;25.624;2023-10-09T13:41:21;21.50;55.10
63802;DHT22;49949;43.060;25.624;2023-10-09T13:43:47;21.50;55.10
63802;DHT22;49949;43.060;25.624;2023-10-09T13:46:17;21.40;54.20
63802;DHT22;49949;43.060;25.624;2023-10-09T13:48:43;21.50;54.20
63802;DHT22;49949;43.060;25.624;2023-10-09T13:51:11;21.60;54.10
63802;DHT22;49949;43.060;25.624;2023-10-09T13:53:44;21.60;54.80
63802;DHT22;49949;43.060;25.624;2023-10-09T13:56:18;21.70;54.20
63802;DHT22;49949;43.060;25.624;2023-10-09T13:58:48;21.50;54.90
63802;DHT22;49949;43.060;25.624;2023-10-09T14:01:16;21.60;55.20
63802;DHT22;49949;43.060;25.624;2023-10-09T14:03:59;21.60;54.60
63802;DHT22;49949;43.060;25.624;2023-10-09T14:06:26;21.40;54.00
63802;DHT22;49949;43.060;25.624;2023-10-09T14:09:03;21.30;54.40
63802;DHT22;49949;43.060;25.624;2023-10-09T14:11:31;21.30;55.10
63802;DHT22;49949;43.060;25.624;2023-10-09T14:13:57;21.40;55.10
63802;DHT22;49949;43.060;25.624;2023-10-09T14:16:28;21.40;55.00
63802;DHT22;49949;43.060;25.624;2023-10-09T14:18:55;21.40;55.50
63802;DHT22;49949;43.060;25.624;2023-10-09T14:21:27;21.40;55.00
63802;DHT22;49949;43.060;25.624;2023-10-09T14:23:56;21.40;55.50
63802;DHT22;49949;43.060;25.624;2023-10-09T14:26:26;21.40;55.50
63802;DHT22;49949;43.060;25.624;2023-10-09T14:28:54;21.50;55.10
63802;DHT22;49949;43.060;25.624;2023-10-09T14:31:25;21.50;53.00
63802;DHT22;49949;43.060;25.624;2023-10-09T14:33:57;21.50;52.50
63802;DHT22;49949;43.060;25.624;2023-10-09T14:36:23;21.40;53.30
63802;DHT22;49949;43.060;25.624;2023-10-09T14:38:51;21.30;52.70
63802;DHT22;49949;43.060;25.624;2023-10-09T14:41:22;21.20;52.60
63802;DHT22;49949;43.060;25.624;2023-10-09T14:43:51;21.20;53.60
63802;DHT22;49949;43.060;25.624;2023-10-09T14:46:18;21.20;53.80
63802;DHT22;49949;43.060;25.624;2023-10-09T14:48:51;21.20;52.80
63802;DHT22;49949;43.060;25.624;2023-10-09T14:51:21;21.20;52.50
63802;DHT22;49949;43.060;25.624;2023-10-09T14:53:57;21.20;50.50
63802;DHT22;49949;43.060;25.624;2023-10-09T14:56:28;21.20;51.30
63802;DHT22;49949;43.060;25.624;2023-10-09T14:58:58;21.10;51.30
63802;DHT22;49949;43.060;25.624;2023-10-09T15:01:28;21.20;50.80
63802;DHT22;49949;43.060;25.624;2023-10-09T15:03:58;21.20;50.80
63802;DHT22;49949;43.060;25.624;2023-10-09T15:06:26;21.10;50.10
63802;DHT22;49949;43.060;25.624;2023-10-09T15:08:54;21.00;49.60
63802;DHT22;49949;43.060;25.624;2023-10-09T15:11:25;21.00;50.80
63802;DHT22;49949;43.060;25.624;2023-10-09T15:13:54;21.00;51.10
63802;DHT22;49949;43.060;25.624;2023-10-09T15:16:21;21.00;50.90
63802;DHT22;49949;43.060;25.624;2023-10-09T15:18:48;21.00;51.80
63802;DHT22;49949;43.060;25.624;2023-10-09T15:21:19;20.90;51.50
63802;DHT22;49949;43.060;25.624;2023-10-09T15:23:51;20.90;51.60
63802;DHT22;49949;43.060;25.624;2023-10-09T15:26:19;20.90;51.50
63802;DHT22;49949;43.060;25.624;2023-10-09T15:28:46;20.70;52.00
63802;DHT22;49949;43.060;25.624;2023-10-09T15:31:12;20.60;51.70
63802;DHT22;49949;43.060;25.624;2023-10-09T15:33:38;20.50;53.30
63802;DHT22;49949;43.060;25.624;2023-10-09T15:36:16;20.40;53.80
63802;DHT22;49949;43.060;25.624;2023-10-09T15:38:47;20.30;52.80
63802;DHT22;49949;43.060;25.624;2023-10-09T15:41:15;20.20;53.20
63802;DHT22;49949;43.060;25.624;2023-10-09T15:43:41;20.00;54.00
63802;DHT22;49949;43.060;25.624;2023-10-09T15:46:12;19.90;54.70
63802;DHT22;49949;43.060;25.624;2023-10-09T15:48:42;19.70;55.80
63802;DHT22;49949;43.060;25.624;2023-10-09T15:51:14;19.50;56.20
63802;DHT22;49949;43.060;25.624;2023-10-09T15:53:43;19.20;62.30
63802;DHT22;49949;43.060;25.624;2023-10-09T15:56:10;18.90;63.30
63802;DHT22;49949;43.060;25.624;2023-10-09T15:58:38;18.60;64.80
63802;DHT22;49949;43.060;25.624;2023-10-09T16:01:11;18.40;65.70
63802;DHT22;49949;43.060;25.624;2023-10-09T16:03:39;18.20;63.20
63802;DHT22;49949;43.060;25.624;2023-10-09T16:06:06;18.10;65.30